DLH1330 EDDF-GMMN
Flight info
| Callsign | DLH1330 |
|---|---|
| Flight time | 3h 19m |
| Altitude | 33000 |
| Route | ANEKI2L/18 ANEKI Y163 HERBI Y164 MOPAN DCT LUTIX DCT BENOT DCT NEMOS DCT NINTU DCT MEBAK DCT REPSI DCT LERGA DCT MINSO DCT NARAK DCT AGN DCT MAQAB DCT TIVLI/N0452F350 N869 GALTO UB11 TUSOR |
| Aircraft | A321/M-SDE3FGHIRWY/LB1 |
Departure
| Time | 2026-05-07 13:17 |
|---|---|
| Airport | Frankfurt Main Airport (EDDF) |
Arrival
| Time | 2026-05-07 16:36 |
|---|---|
| Airport | Mohammed V International Airport (GMMN) |
| Time | Latitude | Longitude | Altitude | Speed | Heading |
|---|---|---|---|---|---|
| 2026-05-07 12:40 | 50.04608 | 8.56772 | 356 ft | 0 kts | 294° |
| 2026-05-07 13:06 | 50.04603 | 8.56789 | 356 ft | 4 kts | 293° |
| 2026-05-07 13:06 | 50.04592 | 8.56827 | 363 ft | 4 kts | 295° |
| 2026-05-07 13:06 | 50.04583 | 8.56859 | 364 ft | 4 kts | 275° |
| 2026-05-07 13:06 | 50.04589 | 8.56893 | 364 ft | 4 kts | 220° |
| 2026-05-07 13:07 | 50.04612 | 8.56913 | 362 ft | 4 kts | 195° |
| 2026-05-07 13:07 | 50.04636 | 8.56923 | 361 ft | 4 kts | 203° |
| 2026-05-07 13:07 | 50.04652 | 8.56935 | 363 ft | 0 kts | 206° |
| 2026-05-07 13:10 | 50.04652 | 8.56934 | 363 ft | 1 kts | 206° |
| 2026-05-07 13:10 | 50.04625 | 8.56918 | 359 ft | 8 kts | 198° |
| 2026-05-07 13:11 | 50.04561 | 8.56894 | 361 ft | 8 kts | 190° |
| 2026-05-07 13:11 | 50.04506 | 8.56874 | 359 ft | 10 kts | 195° |
| 2026-05-07 13:11 | 50.04447 | 8.56803 | 364 ft | 12 kts | 247° |
| 2026-05-07 13:11 | 50.04406 | 8.56638 | 360 ft | 21 kts | 249° |
| 2026-05-07 13:12 | 50.04352 | 8.56415 | 359 ft | 22 kts | 250° |
| 2026-05-07 13:12 | 50.04298 | 8.56188 | 358 ft | 22 kts | 250° |
| 2026-05-07 13:12 | 50.04244 | 8.55961 | 358 ft | 22 kts | 250° |
| 2026-05-07 13:12 | 50.04190 | 8.55731 | 357 ft | 23 kts | 249° |
| 2026-05-07 13:13 | 50.04134 | 8.55500 | 357 ft | 23 kts | 250° |
| 2026-05-07 13:13 | 50.04080 | 8.55272 | 360 ft | 22 kts | 250° |
| 2026-05-07 13:13 | 50.04028 | 8.55056 | 356 ft | 21 kts | 250° |
| 2026-05-07 13:13 | 50.03975 | 8.54840 | 358 ft | 22 kts | 250° |
| 2026-05-07 13:14 | 50.03921 | 8.54612 | 356 ft | 23 kts | 249° |
| 2026-05-07 13:14 | 50.03865 | 8.54377 | 354 ft | 24 kts | 249° |
| 2026-05-07 13:14 | 50.03791 | 8.54149 | 353 ft | 24 kts | 242° |
| 2026-05-07 13:14 | 50.03731 | 8.53913 | 348 ft | 24 kts | 251° |
| 2026-05-07 13:15 | 50.03664 | 8.53653 | 348 ft | 31 kts | 248° |
| 2026-05-07 13:15 | 50.03583 | 8.53330 | 335 ft | 32 kts | 249° |
| 2026-05-07 13:15 | 50.03507 | 8.53007 | 336 ft | 31 kts | 251° |
| 2026-05-07 13:15 | 50.03428 | 8.52706 | 332 ft | 23 kts | 251° |
| 2026-05-07 13:16 | 50.03385 | 8.52596 | 334 ft | 11 kts | 204° |
| 2026-05-07 13:16 | 50.03294 | 8.52578 | 334 ft | 26 kts | 181° |
| 2026-05-07 13:16 | 50.02873 | 8.52590 | 332 ft | 93 kts | 180° |
| 2026-05-07 13:16 | 50.02023 | 8.52600 | 332 ft | 149 kts | 181° |
| 2026-05-07 13:17 | 50.00837 | 8.52596 | 425 ft | 184 kts | 180° |
| 2026-05-07 13:17 | 49.99568 | 8.52645 | 1066 ft | 183 kts | 180° |
| 2026-05-07 13:17 | 49.98289 | 8.52745 | 1653 ft | 185 kts | 178° |
| 2026-05-07 13:17 | 49.96942 | 8.52852 | 1868 ft | 204 kts | 178° |
| 2026-05-07 13:18 | 49.95458 | 8.52963 | 2011 ft | 222 kts | 178° |
| 2026-05-07 13:18 | 49.93873 | 8.53076 | 2265 ft | 232 kts | 178° |
| 2026-05-07 13:18 | 49.92254 | 8.53191 | 2742 ft | 233 kts | 179° |
| 2026-05-07 13:18 | 49.90629 | 8.53304 | 3188 ft | 234 kts | 179° |
| 2026-05-07 13:19 | 49.88993 | 8.53416 | 3630 ft | 236 kts | 179° |
| 2026-05-07 13:19 | 49.87345 | 8.53528 | 4058 ft | 238 kts | 179° |
| 2026-05-07 13:19 | 49.85690 | 8.53640 | 4511 ft | 239 kts | 179° |
| 2026-05-07 13:19 | 49.84025 | 8.53753 | 4930 ft | 241 kts | 179° |
| 2026-05-07 13:20 | 49.82346 | 8.53867 | 5338 ft | 242 kts | 179° |
| 2026-05-07 13:20 | 49.80658 | 8.53979 | 5754 ft | 244 kts | 179° |
| 2026-05-07 13:20 | 49.78955 | 8.54093 | 6172 ft | 245 kts | 179° |
| 2026-05-07 13:20 | 49.77244 | 8.54043 | 6482 ft | 251 kts | 186° |
| 2026-05-07 13:21 | 49.75459 | 8.53811 | 6615 ft | 263 kts | 187° |
| 2026-05-07 13:21 | 49.73598 | 8.53558 | 6751 ft | 274 kts | 187° |
| 2026-05-07 13:21 | 49.71678 | 8.53299 | 6987 ft | 279 kts | 187° |
| 2026-05-07 13:21 | 49.69740 | 8.53037 | 7292 ft | 281 kts | 187° |
| 2026-05-07 13:22 | 49.67789 | 8.52775 | 7610 ft | 282 kts | 187° |
| 2026-05-07 13:22 | 49.65831 | 8.52513 | 7927 ft | 283 kts | 187° |
| 2026-05-07 13:22 | 49.63865 | 8.52252 | 8256 ft | 284 kts | 187° |
| 2026-05-07 13:22 | 49.61894 | 8.51992 | 8570 ft | 285 kts | 187° |
| 2026-05-07 13:23 | 49.59912 | 8.51731 | 8870 ft | 286 kts | 187° |
| 2026-05-07 13:23 | 49.57928 | 8.51471 | 9176 ft | 287 kts | 187° |
| 2026-05-07 13:23 | 49.55932 | 8.51210 | 9458 ft | 289 kts | 187° |
| 2026-05-07 13:23 | 49.53923 | 8.50947 | 9747 ft | 290 kts | 187° |
| 2026-05-07 13:24 | 49.51939 | 8.50686 | 10020 ft | 291 kts | 187° |
| 2026-05-07 13:24 | 49.49903 | 8.50418 | 10208 ft | 295 kts | 187° |
| 2026-05-07 13:24 | 49.47838 | 8.50147 | 10330 ft | 301 kts | 186° |
| 2026-05-07 13:24 | 49.45731 | 8.49872 | 10454 ft | 306 kts | 186° |
| 2026-05-07 13:25 | 49.43598 | 8.49592 | 10577 ft | 311 kts | 186° |
| 2026-05-07 13:25 | 49.41424 | 8.49309 | 10699 ft | 314 kts | 187° |
| 2026-05-07 13:25 | 49.39240 | 8.49026 | 10823 ft | 317 kts | 187° |
| 2026-05-07 13:25 | 49.37037 | 8.48742 | 10951 ft | 319 kts | 187° |
| 2026-05-07 13:26 | 49.34828 | 8.48455 | 11159 ft | 318 kts | 187° |
| 2026-05-07 13:26 | 49.32621 | 8.48170 | 11341 ft | 318 kts | 186° |
| 2026-05-07 13:26 | 49.30410 | 8.47883 | 11497 ft | 319 kts | 186° |
| 2026-05-07 13:26 | 49.28189 | 8.47594 | 11668 ft | 320 kts | 186° |
| 2026-05-07 13:27 | 49.25965 | 8.47306 | 11825 ft | 321 kts | 186° |
| 2026-05-07 13:27 | 49.23729 | 8.47015 | 11982 ft | 322 kts | 186° |
| 2026-05-07 13:27 | 49.21523 | 8.46725 | 12144 ft | 323 kts | 186° |
| 2026-05-07 13:27 | 49.19281 | 8.46429 | 12306 ft | 324 kts | 186° |
| 2026-05-07 13:28 | 49.17027 | 8.46131 | 12448 ft | 325 kts | 186° |
| 2026-05-07 13:28 | 49.14768 | 8.45838 | 12588 ft | 326 kts | 186° |
| 2026-05-07 13:28 | 49.12501 | 8.45547 | 12730 ft | 327 kts | 186° |
| 2026-05-07 13:28 | 49.10232 | 8.45255 | 12867 ft | 328 kts | 186° |
| 2026-05-07 13:29 | 49.07952 | 8.44962 | 13003 ft | 329 kts | 185° |
| 2026-05-07 13:29 | 49.05685 | 8.44521 | 13138 ft | 329 kts | 193° |
| 2026-05-07 13:29 | 49.03449 | 8.43746 | 13273 ft | 329 kts | 194° |
| 2026-05-07 13:29 | 49.01214 | 8.42959 | 13409 ft | 330 kts | 194° |
| 2026-05-07 13:30 | 48.98974 | 8.42173 | 13543 ft | 331 kts | 195° |
| 2026-05-07 13:30 | 48.96730 | 8.41389 | 13681 ft | 331 kts | 194° |
| 2026-05-07 13:30 | 48.94484 | 8.40605 | 13814 ft | 331 kts | 195° |
| 2026-05-07 13:30 | 48.92237 | 8.39825 | 13937 ft | 332 kts | 195° |
| 2026-05-07 13:31 | 48.90010 | 8.39054 | 14058 ft | 333 kts | 194° |
| 2026-05-07 13:31 | 48.87720 | 8.38266 | 14180 ft | 333 kts | 194° |
| 2026-05-07 13:31 | 48.85462 | 8.37489 | 14305 ft | 333 kts | 194° |
| 2026-05-07 13:31 | 48.83231 | 8.36722 | 14418 ft | 333 kts | 194° |
| 2026-05-07 13:32 | 48.80975 | 8.35942 | 14545 ft | 333 kts | 194° |
| 2026-05-07 13:32 | 48.78716 | 8.35159 | 14671 ft | 333 kts | 195° |
| 2026-05-07 13:32 | 48.76462 | 8.34361 | 14800 ft | 332 kts | 195° |
| 2026-05-07 13:32 | 48.74240 | 8.33552 | 15216 ft | 320 kts | 196° |
| 2026-05-07 13:33 | 48.72100 | 8.32766 | 15584 ft | 313 kts | 196° |
| 2026-05-07 13:33 | 48.70671 | 8.32236 | 15736 ft | 312 kts | 196° |
| 2026-05-07 13:33 | 48.68567 | 8.31453 | 15899 ft | 312 kts | 196° |
| 2026-05-07 13:33 | 48.66484 | 8.30681 | 16057 ft | 312 kts | 196° |
| 2026-05-07 13:34 | 48.64375 | 8.29905 | 16208 ft | 313 kts | 196° |
| 2026-05-07 13:34 | 48.60106 | 8.28353 | 16499 ft | 314 kts | 196° |
| 2026-05-07 13:34 | 48.58003 | 8.27595 | 16642 ft | 314 kts | 196° |
| 2026-05-07 13:35 | 48.55877 | 8.26827 | 16782 ft | 315 kts | 196° |
| 2026-05-07 13:35 | 48.53739 | 8.26051 | 16924 ft | 316 kts | 196° |
| 2026-05-07 13:35 | 48.51604 | 8.25276 | 17065 ft | 316 kts | 196° |
| 2026-05-07 13:35 | 48.49464 | 8.24499 | 17195 ft | 316 kts | 196° |
| 2026-05-07 13:36 | 48.47321 | 8.23721 | 17328 ft | 317 kts | 196° |
| 2026-05-07 13:36 | 48.45177 | 8.22940 | 17461 ft | 317 kts | 196° |
| 2026-05-07 13:36 | 48.43029 | 8.22156 | 17599 ft | 317 kts | 197° |
| 2026-05-07 13:36 | 48.40878 | 8.21367 | 17732 ft | 318 kts | 197° |
| 2026-05-07 13:37 | 48.38733 | 8.20580 | 17871 ft | 318 kts | 197° |
| 2026-05-07 13:37 | 48.36581 | 8.19789 | 18004 ft | 320 kts | 197° |
| 2026-05-07 13:37 | 48.34409 | 8.18996 | 18408 ft | 322 kts | 196° |
| 2026-05-07 13:37 | 48.32221 | 8.18201 | 18816 ft | 324 kts | 196° |
| 2026-05-07 13:38 | 48.30024 | 8.17404 | 19211 ft | 326 kts | 196° |
| 2026-05-07 13:38 | 48.27810 | 8.16602 | 19611 ft | 328 kts | 196° |
| 2026-05-07 13:38 | 48.25588 | 8.15748 | 20005 ft | 330 kts | 200° |
| 2026-05-07 13:38 | 48.23440 | 8.14552 | 20393 ft | 330 kts | 206° |
| 2026-05-07 13:39 | 48.21404 | 8.13061 | 20766 ft | 331 kts | 209° |
| 2026-05-07 13:39 | 48.19332 | 8.11514 | 21148 ft | 334 kts | 208° |
| 2026-05-07 13:39 | 48.17237 | 8.09961 | 21424 ft | 340 kts | 208° |
| 2026-05-07 13:39 | 48.15081 | 8.08366 | 21553 ft | 350 kts | 208° |
| 2026-05-07 13:40 | 48.12866 | 8.06727 | 21693 ft | 360 kts | 208° |
| 2026-05-07 13:40 | 48.10588 | 8.05049 | 21831 ft | 369 kts | 208° |
| 2026-05-07 13:40 | 48.08256 | 8.03339 | 21967 ft | 378 kts | 208° |
| 2026-05-07 13:40 | 48.05866 | 8.01583 | 22103 ft | 386 kts | 208° |
| 2026-05-07 13:41 | 48.03427 | 7.99786 | 22230 ft | 395 kts | 208° |
| 2026-05-07 13:41 | 48.00934 | 7.97948 | 22362 ft | 403 kts | 208° |
| 2026-05-07 13:41 | 47.98400 | 7.96085 | 22502 ft | 410 kts | 208° |
| 2026-05-07 13:41 | 47.95813 | 7.94189 | 22631 ft | 417 kts | 207° |
| 2026-05-07 13:42 | 47.93187 | 7.92271 | 22764 ft | 423 kts | 208° |
| 2026-05-07 13:42 | 47.90520 | 7.90328 | 22902 ft | 429 kts | 207° |
| 2026-05-07 13:42 | 47.87817 | 7.88355 | 23037 ft | 435 kts | 208° |
| 2026-05-07 13:42 | 47.85081 | 7.86361 | 23172 ft | 441 kts | 208° |
| 2026-05-07 13:43 | 47.82304 | 7.84337 | 23314 ft | 447 kts | 207° |
| 2026-05-07 13:43 | 47.79490 | 7.82289 | 23452 ft | 452 kts | 207° |
| 2026-05-07 13:43 | 47.76649 | 7.80221 | 23618 ft | 456 kts | 207° |
| 2026-05-07 13:43 | 47.73791 | 7.78141 | 23780 ft | 459 kts | 207° |
| 2026-05-07 13:44 | 47.70927 | 7.76059 | 23991 ft | 459 kts | 207° |
| 2026-05-07 13:44 | 47.68047 | 7.73970 | 24216 ft | 460 kts | 207° |
| 2026-05-07 13:44 | 47.65172 | 7.71890 | 24419 ft | 461 kts | 207° |
| 2026-05-07 13:44 | 47.62325 | 7.69832 | 24671 ft | 460 kts | 207° |
| 2026-05-07 13:45 | 47.59439 | 7.67750 | 24973 ft | 459 kts | 208° |
| 2026-05-07 13:45 | 47.56572 | 7.65687 | 25262 ft | 458 kts | 207° |
| 2026-05-07 13:45 | 47.53705 | 7.63624 | 25536 ft | 457 kts | 207° |
| 2026-05-07 13:45 | 47.50847 | 7.61569 | 25818 ft | 457 kts | 207° |
| 2026-05-07 13:46 | 47.47994 | 7.59518 | 26119 ft | 456 kts | 207° |
| 2026-05-07 13:46 | 47.45140 | 7.57472 | 26410 ft | 455 kts | 207° |
| 2026-05-07 13:46 | 47.42289 | 7.55429 | 26705 ft | 454 kts | 207° |
| 2026-05-07 13:46 | 47.39451 | 7.53400 | 27014 ft | 453 kts | 207° |
| 2026-05-07 13:47 | 47.36619 | 7.51377 | 27301 ft | 452 kts | 207° |
| 2026-05-07 13:47 | 47.33787 | 7.49356 | 27604 ft | 451 kts | 207° |
| 2026-05-07 13:47 | 47.30960 | 7.47341 | 27901 ft | 450 kts | 208° |
| 2026-05-07 13:47 | 47.28144 | 7.45333 | 28196 ft | 450 kts | 208° |
| 2026-05-07 13:48 | 47.25364 | 7.43351 | 28491 ft | 449 kts | 208° |
| 2026-05-07 13:48 | 47.22559 | 7.41355 | 28793 ft | 448 kts | 208° |
| 2026-05-07 13:48 | 47.19759 | 7.39328 | 29070 ft | 447 kts | 211° |
| 2026-05-07 13:48 | 47.17162 | 7.36862 | 29358 ft | 443 kts | 220° |
| 2026-05-07 13:49 | 47.14870 | 7.33854 | 29634 ft | 440 kts | 229° |
| 2026-05-07 13:49 | 47.12908 | 7.30422 | 29914 ft | 438 kts | 233° |
| 2026-05-07 13:49 | 47.11025 | 7.26925 | 30183 ft | 437 kts | 233° |
| 2026-05-07 13:49 | 47.09134 | 7.23436 | 30413 ft | 436 kts | 233° |
| 2026-05-07 13:50 | 47.07242 | 7.19970 | 30654 ft | 435 kts | 233° |
| 2026-05-07 13:50 | 47.05346 | 7.16508 | 30926 ft | 434 kts | 233° |
| 2026-05-07 13:50 | 47.03459 | 7.13062 | 31160 ft | 433 kts | 233° |
| 2026-05-07 13:50 | 47.01569 | 7.09603 | 31396 ft | 432 kts | 233° |
| 2026-05-07 13:51 | 46.99692 | 7.06166 | 31626 ft | 432 kts | 233° |
| 2026-05-07 13:51 | 46.97814 | 7.02728 | 31846 ft | 431 kts | 233° |
| 2026-05-07 13:51 | 46.95945 | 6.99308 | 32049 ft | 430 kts | 234° |
| 2026-05-07 13:51 | 46.94080 | 6.95908 | 32328 ft | 427 kts | 234° |
| 2026-05-07 13:52 | 46.92214 | 6.92514 | 32552 ft | 426 kts | 234° |
| 2026-05-07 13:52 | 46.90354 | 6.89133 | 32764 ft | 426 kts | 234° |
| 2026-05-07 13:52 | 46.88522 | 6.85810 | 32955 ft | 425 kts | 234° |
| 2026-05-07 13:52 | 46.86667 | 6.82453 | 33162 ft | 424 kts | 234° |
| 2026-05-07 13:53 | 46.84813 | 6.79105 | 33357 ft | 424 kts | 234° |
| 2026-05-07 13:53 | 46.82959 | 6.75757 | 33544 ft | 423 kts | 234° |
| 2026-05-07 13:53 | 46.81108 | 6.72413 | 33740 ft | 423 kts | 234° |
| 2026-05-07 13:53 | 46.79261 | 6.69083 | 33924 ft | 422 kts | 234° |
| 2026-05-07 13:54 | 46.77412 | 6.65757 | 34090 ft | 421 kts | 233° |
| 2026-05-07 13:54 | 46.75570 | 6.62451 | 34304 ft | 419 kts | 233° |
| 2026-05-07 13:54 | 46.73735 | 6.59160 | 34465 ft | 418 kts | 233° |
| 2026-05-07 13:54 | 46.71898 | 6.55867 | 34608 ft | 418 kts | 233° |
| 2026-05-07 13:55 | 46.70062 | 6.52580 | 34734 ft | 418 kts | 233° |
| 2026-05-07 13:55 | 46.68225 | 6.49296 | 34857 ft | 418 kts | 233° |
| 2026-05-07 13:55 | 46.66389 | 6.46018 | 34998 ft | 418 kts | 233° |
| 2026-05-07 13:56 | 46.62712 | 6.39464 | 35026 ft | 422 kts | 233° |
| 2026-05-07 13:56 | 46.58994 | 6.32846 | 35025 ft | 423 kts | 233° |
| 2026-05-07 13:57 | 46.55264 | 6.26223 | 35026 ft | 423 kts | 233° |
| 2026-05-07 13:57 | 46.51523 | 6.19609 | 35027 ft | 423 kts | 233° |
| 2026-05-07 13:58 | 46.47780 | 6.13009 | 35029 ft | 424 kts | 233° |
| 2026-05-07 13:58 | 46.44031 | 6.06398 | 35037 ft | 424 kts | 233° |
| 2026-05-07 13:59 | 46.40272 | 5.99792 | 35014 ft | 425 kts | 232° |
| 2026-05-07 13:59 | 46.36532 | 5.93247 | 35030 ft | 424 kts | 232° |
| 2026-05-07 14:00 | 46.32775 | 5.86667 | 35032 ft | 423 kts | 232° |
| 2026-05-07 14:00 | 46.29015 | 5.80105 | 35037 ft | 423 kts | 232° |
| 2026-05-07 14:01 | 46.25253 | 5.73570 | 35043 ft | 423 kts | 232° |
| 2026-05-07 14:01 | 46.21489 | 5.67041 | 35038 ft | 422 kts | 232° |
| 2026-05-07 14:02 | 46.17738 | 5.60532 | 35041 ft | 421 kts | 232° |
| 2026-05-07 14:02 | 46.14071 | 5.53948 | 35044 ft | 419 kts | 237° |
| 2026-05-07 14:03 | 46.10762 | 5.47023 | 35043 ft | 419 kts | 237° |
| 2026-05-07 14:03 | 46.07446 | 5.40112 | 35041 ft | 419 kts | 237° |
| 2026-05-07 14:04 | 46.04128 | 5.33211 | 35027 ft | 419 kts | 237° |
| 2026-05-07 14:04 | 46.00800 | 5.26320 | 35043 ft | 419 kts | 237° |
| 2026-05-07 14:05 | 45.97492 | 5.19486 | 35040 ft | 418 kts | 237° |
| 2026-05-07 14:05 | 45.94160 | 5.12616 | 35046 ft | 418 kts | 237° |
| 2026-05-07 14:06 | 45.90828 | 5.05763 | 35034 ft | 418 kts | 237° |
| 2026-05-07 14:06 | 45.87494 | 4.98916 | 35051 ft | 418 kts | 237° |
| 2026-05-07 14:07 | 45.84174 | 4.92111 | 35012 ft | 418 kts | 237° |
| 2026-05-07 14:07 | 45.80833 | 4.85267 | 35021 ft | 418 kts | 237° |
| 2026-05-07 14:08 | 45.77475 | 4.78441 | 35025 ft | 418 kts | 237° |
| 2026-05-07 14:08 | 45.74121 | 4.71618 | 35025 ft | 419 kts | 237° |
| 2026-05-07 14:09 | 45.70761 | 4.64803 | 35034 ft | 419 kts | 236° |
| 2026-05-07 14:09 | 45.67392 | 4.57983 | 35018 ft | 419 kts | 236° |
| 2026-05-07 14:10 | 45.64046 | 4.51214 | 35023 ft | 420 kts | 236° |
| 2026-05-07 14:10 | 45.60668 | 4.44408 | 35024 ft | 420 kts | 236° |
| 2026-05-07 14:11 | 45.57277 | 4.37604 | 35025 ft | 420 kts | 236° |
| 2026-05-07 14:11 | 45.53894 | 4.30814 | 35025 ft | 420 kts | 236° |
| 2026-05-07 14:12 | 45.50510 | 4.24033 | 35028 ft | 420 kts | 236° |
| 2026-05-07 14:12 | 45.47112 | 4.17262 | 35020 ft | 420 kts | 235° |
| 2026-05-07 14:13 | 45.43703 | 4.10496 | 35021 ft | 420 kts | 235° |
| 2026-05-07 14:13 | 45.40316 | 4.03779 | 35022 ft | 420 kts | 235° |
| 2026-05-07 14:14 | 45.36904 | 3.97033 | 35017 ft | 420 kts | 235° |
| 2026-05-07 14:14 | 45.33492 | 3.90298 | 35026 ft | 420 kts | 235° |
| 2026-05-07 14:15 | 45.30081 | 3.83559 | 35022 ft | 419 kts | 234° |
| 2026-05-07 14:15 | 45.26655 | 3.76826 | 35030 ft | 420 kts | 234° |
| 2026-05-07 14:16 | 45.23253 | 3.70097 | 35003 ft | 420 kts | 235° |
| 2026-05-07 14:16 | 45.19908 | 3.63290 | 35006 ft | 420 kts | 236° |
| 2026-05-07 14:17 | 45.16578 | 3.56468 | 35009 ft | 421 kts | 236° |
| 2026-05-07 14:17 | 45.13802 | 3.50816 | 35003 ft | 421 kts | 235° |
| 2026-05-07 14:18 | 45.10441 | 3.44032 | 35001 ft | 421 kts | 235° |
| 2026-05-07 14:18 | 45.07065 | 3.37252 | 35007 ft | 421 kts | 235° |
| 2026-05-07 14:19 | 45.03693 | 3.30487 | 35008 ft | 421 kts | 235° |
| 2026-05-07 14:19 | 45.00319 | 3.23720 | 35010 ft | 421 kts | 235° |
| 2026-05-07 14:20 | 44.96936 | 3.16957 | 35007 ft | 421 kts | 235° |
| 2026-05-07 14:20 | 44.93547 | 3.10216 | 35009 ft | 421 kts | 234° |
| 2026-05-07 14:21 | 44.90180 | 3.03526 | 35020 ft | 421 kts | 234° |
| 2026-05-07 14:21 | 44.86780 | 2.96785 | 35014 ft | 421 kts | 234° |
| 2026-05-07 14:22 | 44.83412 | 2.90024 | 35015 ft | 421 kts | 236° |
| 2026-05-07 14:22 | 44.80220 | 2.83088 | 35012 ft | 422 kts | 237° |
| 2026-05-07 14:23 | 44.77081 | 2.76101 | 35016 ft | 422 kts | 237° |
| 2026-05-07 14:23 | 44.73902 | 2.69159 | 35019 ft | 422 kts | 237° |
| 2026-05-07 14:24 | 44.70710 | 2.62282 | 35021 ft | 422 kts | 236° |
| 2026-05-07 14:24 | 44.67490 | 2.55372 | 35018 ft | 423 kts | 236° |
| 2026-05-07 14:25 | 44.64267 | 2.48460 | 35013 ft | 423 kts | 236° |
| 2026-05-07 14:25 | 44.61035 | 2.41547 | 35016 ft | 423 kts | 236° |
| 2026-05-07 14:26 | 44.57803 | 2.34642 | 35008 ft | 424 kts | 236° |
| 2026-05-07 14:26 | 44.54564 | 2.27738 | 35022 ft | 424 kts | 236° |
| 2026-05-07 14:27 | 44.51315 | 2.20813 | 35022 ft | 424 kts | 236° |
| 2026-05-07 14:27 | 44.48063 | 2.13909 | 35019 ft | 425 kts | 236° |
| 2026-05-07 14:28 | 44.44801 | 2.07015 | 35017 ft | 425 kts | 236° |
| 2026-05-07 14:28 | 44.41559 | 2.00163 | 35017 ft | 425 kts | 236° |
| 2026-05-07 14:29 | 44.38295 | 1.93279 | 35010 ft | 425 kts | 236° |
| 2026-05-07 14:29 | 44.35020 | 1.86403 | 35021 ft | 425 kts | 236° |
| 2026-05-07 14:30 | 44.31744 | 1.79534 | 35018 ft | 425 kts | 236° |
| 2026-05-07 14:30 | 44.28462 | 1.72662 | 35016 ft | 425 kts | 236° |
| 2026-05-07 14:31 | 44.25265 | 1.65733 | 35010 ft | 424 kts | 237° |
| 2026-05-07 14:31 | 44.22104 | 1.58763 | 35009 ft | 425 kts | 237° |
| 2026-05-07 14:32 | 44.18946 | 1.51873 | 35010 ft | 424 kts | 236° |
| 2026-05-07 14:32 | 44.15739 | 1.44940 | 35008 ft | 425 kts | 236° |
| 2026-05-07 14:33 | 44.12532 | 1.38019 | 35006 ft | 425 kts | 236° |
| 2026-05-07 14:33 | 44.09325 | 1.31105 | 35003 ft | 425 kts | 236° |
| 2026-05-07 14:34 | 44.06119 | 1.24212 | 34999 ft | 425 kts | 236° |
| 2026-05-07 14:34 | 44.02902 | 1.17322 | 34997 ft | 425 kts | 236° |
| 2026-05-07 14:35 | 43.99697 | 1.10468 | 35001 ft | 425 kts | 236° |
| 2026-05-07 14:35 | 43.96471 | 1.03588 | 34998 ft | 425 kts | 236° |
| 2026-05-07 14:36 | 43.93238 | 0.96721 | 35002 ft | 425 kts | 236° |
| 2026-05-07 14:36 | 43.90001 | 0.89862 | 34997 ft | 425 kts | 234° |
| 2026-05-07 14:37 | 43.86036 | 0.83851 | 34999 ft | 423 kts | 221° |
| 2026-05-07 14:37 | 43.79441 | 0.75714 | 35001 ft | 423 kts | 221° |
| 2026-05-07 14:38 | 43.75038 | 0.70291 | 35001 ft | 423 kts | 221° |
| 2026-05-07 14:38 | 43.70648 | 0.64868 | 34999 ft | 423 kts | 221° |
| 2026-05-07 14:39 | 43.66282 | 0.59499 | 34994 ft | 423 kts | 221° |
| 2026-05-07 14:39 | 43.61871 | 0.54102 | 34990 ft | 423 kts | 221° |
| 2026-05-07 14:40 | 43.57465 | 0.48713 | 34992 ft | 422 kts | 221° |
| 2026-05-07 14:40 | 43.53067 | 0.43344 | 34993 ft | 422 kts | 221° |
| 2026-05-07 14:41 | 43.48672 | 0.37994 | 35004 ft | 422 kts | 221° |
| 2026-05-07 14:41 | 43.44301 | 0.32685 | 35002 ft | 421 kts | 221° |
| 2026-05-07 14:42 | 43.39915 | 0.27373 | 34998 ft | 418 kts | 221° |
| 2026-05-07 14:42 | 43.35563 | 0.22102 | 34997 ft | 416 kts | 221° |
| 2026-05-07 14:43 | 43.31218 | 0.16851 | 34998 ft | 415 kts | 221° |
| 2026-05-07 14:43 | 43.26881 | 0.11626 | 34992 ft | 414 kts | 221° |
| 2026-05-07 14:44 | 43.22549 | 0.06416 | 34984 ft | 414 kts | 221° |
| 2026-05-07 14:44 | 43.18256 | 0.01255 | 34990 ft | 413 kts | 221° |
| 2026-05-07 14:45 | 43.13939 | -0.03929 | 34980 ft | 412 kts | 221° |
| 2026-05-07 14:45 | 43.09617 | -0.09092 | 34978 ft | 413 kts | 221° |
| 2026-05-07 14:46 | 43.05284 | -0.14266 | 34978 ft | 413 kts | 220° |
| 2026-05-07 14:46 | 43.00958 | -0.19420 | 34970 ft | 412 kts | 220° |
| 2026-05-07 14:47 | 42.96634 | -0.24561 | 34981 ft | 412 kts | 220° |
| 2026-05-07 14:47 | 42.92304 | -0.29696 | 34987 ft | 412 kts | 220° |
| 2026-05-07 14:48 | 42.87980 | -0.34823 | 34978 ft | 412 kts | 220° |
| 2026-05-07 14:48 | 42.83653 | -0.39943 | 34985 ft | 412 kts | 220° |
| 2026-05-07 14:49 | 42.78981 | -0.44397 | 34986 ft | 412 kts | 206° |
| 2026-05-07 14:49 | 42.73644 | -0.47264 | 34976 ft | 412 kts | 202° |
| 2026-05-07 14:50 | 42.68321 | -0.50065 | 34980 ft | 413 kts | 202° |
| 2026-05-07 14:50 | 42.62964 | -0.52894 | 34977 ft | 413 kts | 202° |
| 2026-05-07 14:51 | 42.57607 | -0.55707 | 34975 ft | 413 kts | 202° |
| 2026-05-07 14:51 | 42.52247 | -0.58509 | 34979 ft | 413 kts | 202° |
| 2026-05-07 14:52 | 42.46890 | -0.61311 | 34967 ft | 412 kts | 202° |
| 2026-05-07 14:52 | 42.41532 | -0.64107 | 34967 ft | 412 kts | 202° |
| 2026-05-07 14:53 | 42.36181 | -0.66891 | 34968 ft | 412 kts | 202° |
| 2026-05-07 14:53 | 42.30840 | -0.69666 | 34970 ft | 411 kts | 202° |
| 2026-05-07 14:54 | 42.25494 | -0.72436 | 34966 ft | 411 kts | 202° |
| 2026-05-07 14:54 | 42.20186 | -0.75187 | 34965 ft | 411 kts | 202° |
| 2026-05-07 14:55 | 42.14851 | -0.77951 | 34978 ft | 411 kts | 202° |
| 2026-05-07 14:55 | 42.09512 | -0.80707 | 34970 ft | 410 kts | 202° |
| 2026-05-07 14:56 | 42.04171 | -0.83452 | 34967 ft | 410 kts | 202° |
| 2026-05-07 14:56 | 41.98840 | -0.86193 | 34965 ft | 410 kts | 202° |
| 2026-05-07 14:57 | 41.93539 | -0.88920 | 34965 ft | 410 kts | 202° |
| 2026-05-07 14:57 | 41.88176 | -0.91670 | 34963 ft | 410 kts | 202° |
| 2026-05-07 14:58 | 41.82884 | -0.94381 | 34968 ft | 410 kts | 202° |
| 2026-05-07 14:58 | 41.77553 | -0.97094 | 34969 ft | 410 kts | 202° |
| 2026-05-07 14:59 | 41.72212 | -0.99818 | 34964 ft | 409 kts | 202° |
| 2026-05-07 14:59 | 41.66893 | -1.02553 | 34967 ft | 408 kts | 206° |
| 2026-05-07 15:00 | 41.62066 | -1.06498 | 34966 ft | 407 kts | 215° |
| 2026-05-07 15:00 | 41.57432 | -1.10767 | 34967 ft | 407 kts | 215° |
| 2026-05-07 15:01 | 41.52773 | -1.15045 | 34981 ft | 407 kts | 215° |
| 2026-05-07 15:01 | 41.48086 | -1.19340 | 34952 ft | 410 kts | 214° |
| 2026-05-07 15:02 | 41.43361 | -1.23661 | 34935 ft | 412 kts | 214° |
| 2026-05-07 15:02 | 41.38622 | -1.27986 | 34946 ft | 413 kts | 214° |
| 2026-05-07 15:03 | 41.33860 | -1.32318 | 34942 ft | 414 kts | 215° |
| 2026-05-07 15:03 | 41.29092 | -1.36638 | 34943 ft | 416 kts | 215° |
| 2026-05-07 15:04 | 41.24339 | -1.40955 | 34946 ft | 416 kts | 215° |
| 2026-05-07 15:04 | 41.19551 | -1.45305 | 34956 ft | 417 kts | 215° |
| 2026-05-07 15:05 | 41.14756 | -1.49655 | 34963 ft | 417 kts | 215° |
| 2026-05-07 15:05 | 41.10764 | -1.53267 | 34976 ft | 418 kts | 215° |
| 2026-05-07 15:06 | 41.05950 | -1.57616 | 34952 ft | 420 kts | 215° |
| 2026-05-07 15:06 | 41.01104 | -1.61976 | 34945 ft | 422 kts | 215° |
| 2026-05-07 15:07 | 40.96226 | -1.66354 | 34947 ft | 423 kts | 215° |
| 2026-05-07 15:07 | 40.91349 | -1.70731 | 34949 ft | 424 kts | 215° |
| 2026-05-07 15:08 | 40.86467 | -1.75108 | 34957 ft | 423 kts | 216° |
| 2026-05-07 15:08 | 40.81594 | -1.79468 | 34969 ft | 423 kts | 215° |
| 2026-05-07 15:09 | 40.76746 | -1.83790 | 34973 ft | 423 kts | 215° |
| 2026-05-07 15:09 | 40.71864 | -1.88142 | 34981 ft | 423 kts | 215° |
| 2026-05-07 15:10 | 40.66993 | -1.92474 | 34982 ft | 423 kts | 216° |
| 2026-05-07 15:10 | 40.62107 | -1.96802 | 34978 ft | 424 kts | 216° |
| 2026-05-07 15:11 | 40.57202 | -2.01143 | 34977 ft | 424 kts | 216° |
| 2026-05-07 15:11 | 40.52332 | -2.05451 | 34974 ft | 425 kts | 216° |
| 2026-05-07 15:12 | 40.47425 | -2.09779 | 34979 ft | 425 kts | 216° |
| 2026-05-07 15:12 | 40.42513 | -2.14105 | 34977 ft | 425 kts | 216° |
| 2026-05-07 15:13 | 40.37600 | -2.18427 | 34984 ft | 425 kts | 216° |
| 2026-05-07 15:13 | 40.32688 | -2.22747 | 34990 ft | 425 kts | 216° |
| 2026-05-07 15:14 | 40.27764 | -2.27052 | 34992 ft | 425 kts | 216° |
| 2026-05-07 15:14 | 40.22854 | -2.31346 | 34962 ft | 425 kts | 217° |
| 2026-05-07 15:15 | 40.17919 | -2.35649 | 34966 ft | 426 kts | 217° |
| 2026-05-07 15:15 | 40.13012 | -2.39926 | 34977 ft | 426 kts | 217° |
| 2026-05-07 15:16 | 40.08073 | -2.44228 | 34984 ft | 426 kts | 217° |
| 2026-05-07 15:16 | 40.03129 | -2.48523 | 34988 ft | 426 kts | 217° |
| 2026-05-07 15:17 | 39.98183 | -2.52804 | 34979 ft | 426 kts | 217° |
| 2026-05-07 15:17 | 39.93240 | -2.57077 | 34984 ft | 426 kts | 217° |
| 2026-05-07 15:18 | 39.88294 | -2.61354 | 34983 ft | 427 kts | 217° |
| 2026-05-07 15:18 | 39.83340 | -2.65632 | 34986 ft | 427 kts | 217° |
| 2026-05-07 15:19 | 39.78387 | -2.69898 | 34975 ft | 428 kts | 218° |
| 2026-05-07 15:19 | 39.73435 | -2.74144 | 34949 ft | 429 kts | 219° |
| 2026-05-07 15:20 | 39.68455 | -2.78423 | 34945 ft | 430 kts | 219° |
| 2026-05-07 15:20 | 39.63457 | -2.82700 | 34958 ft | 431 kts | 219° |
| 2026-05-07 15:21 | 39.58453 | -2.86981 | 34965 ft | 431 kts | 219° |
| 2026-05-07 15:21 | 39.53443 | -2.91257 | 34936 ft | 431 kts | 219° |
| 2026-05-07 15:22 | 39.48438 | -2.95522 | 34947 ft | 431 kts | 219° |
| 2026-05-07 15:22 | 39.43416 | -2.99793 | 34956 ft | 431 kts | 219° |
| 2026-05-07 15:23 | 39.38175 | -3.03629 | 34959 ft | 440 kts | 207° |
| 2026-05-07 15:23 | 39.32430 | -3.06418 | 34936 ft | 442 kts | 207° |
| 2026-05-07 15:24 | 39.26700 | -3.09199 | 34913 ft | 443 kts | 208° |
| 2026-05-07 15:24 | 39.20934 | -3.12007 | 34928 ft | 443 kts | 208° |
| 2026-05-07 15:25 | 39.15163 | -3.14810 | 34937 ft | 443 kts | 208° |
| 2026-05-07 15:25 | 39.09377 | -3.17608 | 34944 ft | 443 kts | 208° |
| 2026-05-07 15:26 | 39.03600 | -3.20396 | 34934 ft | 443 kts | 209° |
| 2026-05-07 15:26 | 38.97825 | -3.23179 | 34944 ft | 443 kts | 209° |
| 2026-05-07 15:27 | 38.92057 | -3.25961 | 34946 ft | 443 kts | 209° |
| 2026-05-07 15:27 | 38.86287 | -3.28736 | 34948 ft | 443 kts | 209° |
| 2026-05-07 15:28 | 38.80556 | -3.31493 | 34931 ft | 442 kts | 210° |
| 2026-05-07 15:28 | 38.74798 | -3.34242 | 34951 ft | 441 kts | 210° |
| 2026-05-07 15:29 | 38.69051 | -3.36979 | 34946 ft | 440 kts | 210° |
| 2026-05-07 15:29 | 38.63312 | -3.39723 | 34946 ft | 440 kts | 210° |
| 2026-05-07 15:30 | 38.57573 | -3.42459 | 34923 ft | 439 kts | 210° |
| 2026-05-07 15:30 | 38.51850 | -3.45173 | 34934 ft | 438 kts | 210° |
| 2026-05-07 15:31 | 38.46145 | -3.47874 | 34943 ft | 437 kts | 210° |
| 2026-05-07 15:31 | 38.40453 | -3.50567 | 34943 ft | 436 kts | 210° |
| 2026-05-07 15:32 | 38.34776 | -3.53255 | 34935 ft | 435 kts | 210° |
| 2026-05-07 15:32 | 38.29093 | -3.55949 | 34937 ft | 435 kts | 210° |
| 2026-05-07 15:33 | 38.23443 | -3.58610 | 34932 ft | 435 kts | 210° |
| 2026-05-07 15:33 | 38.17729 | -3.61297 | 34933 ft | 435 kts | 210° |
| 2026-05-07 15:34 | 38.12104 | -3.64068 | 34905 ft | 431 kts | 213° |
| 2026-05-07 15:34 | 38.06698 | -3.67158 | 34918 ft | 428 kts | 214° |
| 2026-05-07 15:35 | 38.01304 | -3.70344 | 34923 ft | 427 kts | 214° |
| 2026-05-07 15:35 | 37.95881 | -3.73466 | 34928 ft | 428 kts | 214° |
| 2026-05-07 15:36 | 37.90436 | -3.76528 | 34930 ft | 428 kts | 213° |
| 2026-05-07 15:36 | 37.84986 | -3.79566 | 34914 ft | 427 kts | 213° |
| 2026-05-07 15:37 | 37.79559 | -3.82607 | 34909 ft | 426 kts | 213° |
| 2026-05-07 15:37 | 37.74148 | -3.85654 | 34918 ft | 426 kts | 213° |
| 2026-05-07 15:38 | 37.68730 | -3.88692 | 34921 ft | 426 kts | 213° |
| 2026-05-07 15:38 | 37.63318 | -3.91720 | 34908 ft | 425 kts | 213° |
| 2026-05-07 15:39 | 37.57907 | -3.94745 | 34918 ft | 425 kts | 213° |
| 2026-05-07 15:39 | 37.52498 | -3.97762 | 34920 ft | 425 kts | 213° |
| 2026-05-07 15:40 | 37.47126 | -4.00751 | 34923 ft | 424 kts | 213° |
| 2026-05-07 15:40 | 37.41733 | -4.03753 | 34926 ft | 424 kts | 213° |
| 2026-05-07 15:41 | 37.36342 | -4.06748 | 34903 ft | 424 kts | 213° |
| 2026-05-07 15:41 | 37.30948 | -4.09729 | 34911 ft | 423 kts | 213° |
| 2026-05-07 15:42 | 37.25556 | -4.12711 | 34915 ft | 423 kts | 213° |
| 2026-05-07 15:42 | 37.20169 | -4.15691 | 34920 ft | 423 kts | 213° |
| 2026-05-07 15:43 | 37.14810 | -4.18637 | 34907 ft | 423 kts | 213° |
| 2026-05-07 15:43 | 37.09381 | -4.21627 | 34912 ft | 423 kts | 213° |
| 2026-05-07 15:44 | 37.04019 | -4.24582 | 34930 ft | 423 kts | 213° |
| 2026-05-07 15:44 | 36.98627 | -4.27546 | 34915 ft | 424 kts | 213° |
| 2026-05-07 15:45 | 36.93222 | -4.30498 | 34927 ft | 423 kts | 213° |
| 2026-05-07 15:45 | 36.87819 | -4.33447 | 34900 ft | 423 kts | 213° |
| 2026-05-07 15:46 | 36.79911 | -4.38152 | 34931 ft | 412 kts | 221° |
| 2026-05-07 15:47 | 36.75076 | -4.42037 | 34936 ft | 413 kts | 221° |
| 2026-05-07 15:47 | 36.70233 | -4.45880 | 34937 ft | 413 kts | 221° |
| 2026-05-07 15:48 | 36.65355 | -4.49735 | 34918 ft | 413 kts | 221° |
| 2026-05-07 15:48 | 36.60539 | -4.53549 | 34930 ft | 413 kts | 221° |
| 2026-05-07 15:49 | 36.55695 | -4.57386 | 34928 ft | 413 kts | 221° |
| 2026-05-07 15:49 | 36.50856 | -4.61218 | 34934 ft | 412 kts | 220° |
| 2026-05-07 15:50 | 36.46020 | -4.65032 | 34939 ft | 411 kts | 220° |
| 2026-05-07 15:50 | 36.41190 | -4.68833 | 34941 ft | 411 kts | 220° |
| 2026-05-07 15:51 | 36.36366 | -4.72626 | 34921 ft | 411 kts | 220° |
| 2026-05-07 15:51 | 36.31535 | -4.76413 | 34930 ft | 410 kts | 220° |
| 2026-05-07 15:52 | 36.26711 | -4.80201 | 34933 ft | 410 kts | 220° |
| 2026-05-07 15:52 | 36.21881 | -4.83983 | 34938 ft | 410 kts | 220° |
| 2026-05-07 15:53 | 36.17869 | -4.87118 | 34933 ft | 410 kts | 220° |
| 2026-05-07 15:53 | 36.12256 | -4.91512 | 34909 ft | 411 kts | 220° |
| 2026-05-07 15:54 | 36.08223 | -4.94712 | 34921 ft | 411 kts | 220° |
| 2026-05-07 15:54 | 36.03438 | -4.98516 | 34929 ft | 412 kts | 220° |
| 2026-05-07 15:55 | 35.98601 | -5.02337 | 34928 ft | 412 kts | 220° |
| 2026-05-07 15:55 | 35.93759 | -5.06146 | 34936 ft | 413 kts | 220° |
| 2026-05-07 15:56 | 35.88916 | -5.09961 | 34937 ft | 412 kts | 220° |
| 2026-05-07 15:56 | 35.84078 | -5.13771 | 34940 ft | 413 kts | 220° |
| 2026-05-07 15:57 | 35.79194 | -5.17521 | 34939 ft | 414 kts | 219° |
| 2026-05-07 15:57 | 35.74285 | -5.21135 | 34942 ft | 414 kts | 218° |
| 2026-05-07 15:58 | 35.69339 | -5.24773 | 34940 ft | 413 kts | 218° |
| 2026-05-07 15:58 | 35.64413 | -5.28415 | 34941 ft | 413 kts | 218° |
| 2026-05-07 15:59 | 35.59500 | -5.32068 | 34922 ft | 412 kts | 220° |
| 2026-05-07 15:59 | 35.54795 | -5.36050 | 34926 ft | 408 kts | 223° |
| 2026-05-07 16:00 | 35.50263 | -5.40216 | 34931 ft | 407 kts | 223° |
| 2026-05-07 16:00 | 35.45742 | -5.44335 | 34944 ft | 407 kts | 223° |
| 2026-05-07 16:01 | 35.41154 | -5.48413 | 34948 ft | 407 kts | 222° |
| 2026-05-07 16:01 | 35.36555 | -5.52468 | 34920 ft | 408 kts | 222° |
| 2026-05-07 16:02 | 35.31949 | -5.56534 | 34935 ft | 408 kts | 222° |
| 2026-05-07 16:02 | 35.27343 | -5.60597 | 34937 ft | 408 kts | 222° |
| 2026-05-07 16:03 | 35.22735 | -5.64653 | 34954 ft | 408 kts | 222° |
| 2026-05-07 16:03 | 35.18128 | -5.68709 | 34949 ft | 408 kts | 222° |
| 2026-05-07 16:04 | 35.13513 | -5.72759 | 34957 ft | 408 kts | 221° |
| 2026-05-07 16:04 | 35.08896 | -5.76799 | 34932 ft | 408 kts | 221° |
| 2026-05-07 16:05 | 35.04277 | -5.80845 | 34943 ft | 409 kts | 221° |
| 2026-05-07 16:05 | 34.99649 | -5.84902 | 34945 ft | 410 kts | 221° |
| 2026-05-07 16:06 | 34.95013 | -5.88957 | 34945 ft | 410 kts | 221° |
| 2026-05-07 16:06 | 34.90394 | -5.92973 | 34948 ft | 410 kts | 222° |
| 2026-05-07 16:07 | 34.85901 | -5.97225 | 34950 ft | 408 kts | 225° |
| 2026-05-07 16:07 | 34.81549 | -6.01659 | 34942 ft | 408 kts | 226° |
| 2026-05-07 16:08 | 34.77191 | -6.06076 | 34951 ft | 408 kts | 225° |
| 2026-05-07 16:08 | 34.72789 | -6.10439 | 34944 ft | 409 kts | 224° |
| 2026-05-07 16:09 | 34.68371 | -6.14794 | 34947 ft | 409 kts | 225° |
| 2026-05-07 16:09 | 34.63953 | -6.19154 | 34950 ft | 409 kts | 225° |
| 2026-05-07 16:10 | 34.59531 | -6.23512 | 34954 ft | 410 kts | 224° |
| 2026-05-07 16:10 | 34.55107 | -6.27858 | 34933 ft | 409 kts | 224° |
| 2026-05-07 16:11 | 34.50589 | -6.32099 | 34944 ft | 414 kts | 217° |
| 2026-05-07 16:11 | 34.45172 | -6.34770 | 34946 ft | 427 kts | 203° |
| 2026-05-07 16:11 | 34.42315 | -6.35762 | 34815 ft | 427 kts | 203° |
| 2026-05-07 16:12 | 34.39461 | -6.36755 | 34573 ft | 426 kts | 203° |
| 2026-05-07 16:12 | 34.36623 | -6.37745 | 34328 ft | 424 kts | 203° |
| 2026-05-07 16:12 | 34.33791 | -6.38738 | 34094 ft | 423 kts | 203° |
| 2026-05-07 16:12 | 34.30973 | -6.39731 | 33851 ft | 421 kts | 203° |
| 2026-05-07 16:13 | 34.28161 | -6.40722 | 33559 ft | 420 kts | 203° |
| 2026-05-07 16:13 | 34.25357 | -6.41708 | 33285 ft | 418 kts | 203° |
| 2026-05-07 16:13 | 34.22568 | -6.42687 | 33021 ft | 416 kts | 203° |
| 2026-05-07 16:13 | 34.19794 | -6.43657 | 32759 ft | 413 kts | 202° |
| 2026-05-07 16:14 | 34.17049 | -6.44614 | 32342 ft | 408 kts | 202° |
| 2026-05-07 16:14 | 34.14335 | -6.45562 | 31879 ft | 404 kts | 202° |
| 2026-05-07 16:14 | 34.11649 | -6.46500 | 31422 ft | 399 kts | 202° |
| 2026-05-07 16:14 | 34.08991 | -6.47426 | 30976 ft | 395 kts | 202° |
| 2026-05-07 16:15 | 34.06362 | -6.48340 | 30532 ft | 391 kts | 202° |
| 2026-05-07 16:15 | 34.03758 | -6.49247 | 30071 ft | 387 kts | 202° |
| 2026-05-07 16:15 | 34.01182 | -6.50144 | 29605 ft | 383 kts | 202° |
| 2026-05-07 16:15 | 33.98691 | -6.51150 | 29181 ft | 372 kts | 210° |
| 2026-05-07 16:16 | 33.96462 | -6.52611 | 28754 ft | 359 kts | 220° |
| 2026-05-07 16:16 | 33.94573 | -6.54446 | 28342 ft | 349 kts | 229° |
| 2026-05-07 16:16 | 33.92861 | -6.56487 | 27927 ft | 344 kts | 229° |
| 2026-05-07 16:16 | 33.91166 | -6.58490 | 27537 ft | 339 kts | 228° |
| 2026-05-07 16:17 | 33.89487 | -6.60458 | 27146 ft | 335 kts | 228° |
| 2026-05-07 16:17 | 33.87824 | -6.62395 | 26772 ft | 330 kts | 228° |
| 2026-05-07 16:17 | 33.86184 | -6.64303 | 26402 ft | 326 kts | 228° |
| 2026-05-07 16:17 | 33.84559 | -6.66197 | 26033 ft | 324 kts | 228° |
| 2026-05-07 16:18 | 33.82946 | -6.68084 | 25670 ft | 322 kts | 228° |
| 2026-05-07 16:18 | 33.81346 | -6.69963 | 25301 ft | 320 kts | 228° |
| 2026-05-07 16:18 | 33.79758 | -6.71826 | 24949 ft | 318 kts | 228° |
| 2026-05-07 16:18 | 33.78177 | -6.73676 | 24583 ft | 316 kts | 228° |
| 2026-05-07 16:19 | 33.76603 | -6.75512 | 24199 ft | 314 kts | 227° |
| 2026-05-07 16:19 | 33.75041 | -6.77332 | 23860 ft | 312 kts | 227° |
| 2026-05-07 16:19 | 33.73489 | -6.79139 | 23482 ft | 310 kts | 227° |
| 2026-05-07 16:19 | 33.71947 | -6.80933 | 23073 ft | 308 kts | 227° |
| 2026-05-07 16:20 | 33.70412 | -6.82720 | 22689 ft | 306 kts | 227° |
| 2026-05-07 16:20 | 33.68889 | -6.84494 | 22322 ft | 304 kts | 226° |
| 2026-05-07 16:20 | 33.67397 | -6.86234 | 21940 ft | 301 kts | 226° |
| 2026-05-07 16:20 | 33.65884 | -6.87961 | 21544 ft | 300 kts | 223° |
| 2026-05-07 16:21 | 33.64167 | -6.89380 | 21152 ft | 301 kts | 212° |
| 2026-05-07 16:21 | 33.62224 | -6.90356 | 20751 ft | 304 kts | 203° |
| 2026-05-07 16:21 | 33.60214 | -6.91135 | 20344 ft | 303 kts | 203° |
| 2026-05-07 16:21 | 33.58218 | -6.91919 | 19939 ft | 301 kts | 203° |
| 2026-05-07 16:22 | 33.56231 | -6.92703 | 19527 ft | 300 kts | 203° |
| 2026-05-07 16:22 | 33.54263 | -6.93480 | 19135 ft | 298 kts | 203° |
| 2026-05-07 16:22 | 33.52290 | -6.94260 | 18735 ft | 296 kts | 203° |
| 2026-05-07 16:22 | 33.50338 | -6.95034 | 18340 ft | 295 kts | 203° |
| 2026-05-07 16:23 | 33.48391 | -6.95807 | 17884 ft | 294 kts | 203° |
| 2026-05-07 16:23 | 33.46457 | -6.96574 | 17490 ft | 292 kts | 203° |
| 2026-05-07 16:23 | 33.44529 | -6.97338 | 17095 ft | 291 kts | 203° |
| 2026-05-07 16:23 | 33.42611 | -6.98095 | 16706 ft | 290 kts | 203° |
| 2026-05-07 16:24 | 33.40696 | -6.98850 | 16320 ft | 290 kts | 202° |
| 2026-05-07 16:24 | 33.38783 | -6.99603 | 15927 ft | 289 kts | 202° |
| 2026-05-07 16:24 | 33.36873 | -7.00354 | 15546 ft | 288 kts | 202° |
| 2026-05-07 16:24 | 33.34972 | -7.01101 | 15152 ft | 288 kts | 202° |
| 2026-05-07 16:25 | 33.33093 | -7.01841 | 14762 ft | 287 kts | 201° |
| 2026-05-07 16:25 | 33.31198 | -7.02585 | 14391 ft | 286 kts | 201° |
| 2026-05-07 16:25 | 33.29306 | -7.03326 | 14009 ft | 285 kts | 201° |
| 2026-05-07 16:25 | 33.27425 | -7.04064 | 13618 ft | 285 kts | 201° |
| 2026-05-07 16:26 | 33.25546 | -7.04803 | 13212 ft | 283 kts | 200° |
| 2026-05-07 16:26 | 33.23681 | -7.05537 | 12865 ft | 282 kts | 200° |
| 2026-05-07 16:26 | 33.21751 | -7.06316 | 12221 ft | 297 kts | 204° |
| 2026-05-07 16:26 | 33.20543 | -7.07053 | 11985 ft | 295 kts | 214° |
| 2026-05-07 16:27 | 33.18589 | -7.09327 | 11511 ft | 295 kts | 236° |
| 2026-05-07 16:27 | 33.17712 | -7.11528 | 11136 ft | 295 kts | 252° |
| 2026-05-07 16:27 | 33.17303 | -7.13939 | 10781 ft | 297 kts | 257° |
| 2026-05-07 16:27 | 33.16936 | -7.16357 | 10428 ft | 295 kts | 257° |
| 2026-05-07 16:28 | 33.16566 | -7.18763 | 10078 ft | 295 kts | 257° |
| 2026-05-07 16:28 | 33.16195 | -7.21155 | 9705 ft | 291 kts | 257° |
| 2026-05-07 16:28 | 33.15826 | -7.23521 | 9247 ft | 290 kts | 257° |
| 2026-05-07 16:28 | 33.15457 | -7.25880 | 8789 ft | 289 kts | 257° |
| 2026-05-07 16:29 | 33.15090 | -7.28231 | 8332 ft | 288 kts | 257° |
| 2026-05-07 16:29 | 33.14723 | -7.30580 | 7887 ft | 287 kts | 258° |
| 2026-05-07 16:29 | 33.14355 | -7.32920 | 7431 ft | 287 kts | 258° |
| 2026-05-07 16:29 | 33.13986 | -7.35258 | 6982 ft | 286 kts | 258° |
| 2026-05-07 16:30 | 33.13616 | -7.37591 | 6555 ft | 286 kts | 258° |
| 2026-05-07 16:30 | 33.13252 | -7.39891 | 6104 ft | 286 kts | 258° |
| 2026-05-07 16:30 | 33.12884 | -7.42223 | 5651 ft | 285 kts | 259° |
| 2026-05-07 16:30 | 33.12517 | -7.44552 | 5185 ft | 286 kts | 259° |
| 2026-05-07 16:31 | 33.12187 | -7.46891 | 4690 ft | 284 kts | 267° |
| 2026-05-07 16:31 | 33.12507 | -7.49115 | 4267 ft | 263 kts | 297° |
| 2026-05-07 16:31 | 33.13547 | -7.50796 | 4080 ft | 247 kts | 321° |
| 2026-05-07 16:31 | 33.14984 | -7.51773 | 3996 ft | 232 kts | 343° |
| 2026-05-07 16:32 | 33.16498 | -7.52291 | 4002 ft | 227 kts | 344° |
| 2026-05-07 16:32 | 33.18020 | -7.52811 | 3986 ft | 229 kts | 344° |
| 2026-05-07 16:32 | 33.19552 | -7.53334 | 3789 ft | 227 kts | 344° |
| 2026-05-07 16:32 | 33.21074 | -7.53854 | 3511 ft | 228 kts | 344° |
| 2026-05-07 16:33 | 33.22607 | -7.54377 | 3235 ft | 228 kts | 344° |
| 2026-05-07 16:33 | 33.24076 | -7.54878 | 2924 ft | 216 kts | 343° |
| 2026-05-07 16:33 | 33.25491 | -7.55361 | 2639 ft | 206 kts | 344° |
| 2026-05-07 16:33 | 33.26813 | -7.55812 | 2392 ft | 190 kts | 343° |
| 2026-05-07 16:34 | 33.28002 | -7.56219 | 2148 ft | 165 kts | 345° |
| 2026-05-07 16:34 | 33.29040 | -7.56574 | 1940 ft | 148 kts | 344° |
| 2026-05-07 16:34 | 33.30010 | -7.56905 | 1744 ft | 142 kts | 344° |
| 2026-05-07 16:34 | 33.30945 | -7.57224 | 1545 ft | 138 kts | 344° |
| 2026-05-07 16:35 | 33.31881 | -7.57540 | 1351 ft | 140 kts | 346° |
| 2026-05-07 16:35 | 33.32822 | -7.57865 | 1142 ft | 140 kts | 344° |
| 2026-05-07 16:35 | 33.33756 | -7.58184 | 965 ft | 138 kts | 345° |
| 2026-05-07 16:35 | 33.34680 | -7.58496 | 795 ft | 138 kts | 344° |
| 2026-05-07 16:36 | 33.35590 | -7.58816 | 666 ft | 129 kts | 350° |
| 2026-05-07 16:36 | 33.36361 | -7.59073 | 653 ft | 95 kts | 345° |
| 2026-05-07 16:36 | 33.36763 | -7.59208 | 649 ft | 39 kts | 344° |
| 2026-05-07 16:36 | 33.37009 | -7.59296 | 650 ft | 35 kts | 343° |
| 2026-05-07 16:37 | 33.37232 | -7.59318 | 652 ft | 31 kts | 15° |
| 2026-05-07 16:37 | 33.37405 | -7.59256 | 649 ft | 10 kts | 12° |
| 2026-05-07 16:37 | 33.37412 | -7.59254 | 649 ft | 0 kts | 13° |
| 2026-05-07 16:38 | 33.37418 | -7.59253 | 649 ft | 3 kts | 13° |
| 2026-05-07 16:38 | 33.37470 | -7.59239 | 648 ft | 14 kts | 12° |
| 2026-05-07 16:38 | 33.37606 | -7.59219 | 648 ft | 27 kts | 7° |
| 2026-05-07 16:38 | 33.37786 | -7.59140 | 646 ft | 29 kts | 45° |
| 2026-05-07 16:39 | 33.37838 | -7.59020 | 646 ft | 7 kts | 81° |
| 2026-05-07 16:39 | 33.37845 | -7.58962 | 646 ft | 0 kts | 81° |
| 2026-05-07 16:39 | 33.37845 | -7.58961 | 646 ft | 1 kts | 81° |
| 2026-05-07 16:39 | 33.37863 | -7.58886 | 649 ft | 15 kts | 74° |
| 2026-05-07 16:40 | 33.37816 | -7.58810 | 647 ft | 15 kts | 168° |
| 2026-05-07 16:40 | 33.37756 | -7.58774 | 649 ft | 14 kts | 151° |
| 2026-05-07 16:40 | 33.37628 | -7.58728 | 647 ft | 15 kts | 165° |
| 2026-05-07 16:40 | 33.37513 | -7.58692 | 648 ft | 21 kts | 165° |
| 2026-05-07 16:41 | 33.37413 | -7.58660 | 650 ft | 22 kts | 165° |
| 2026-05-07 16:41 | 33.37211 | -7.58597 | 649 ft | 23 kts | 165° |
| 2026-05-07 16:41 | 33.37055 | -7.58549 | 650 ft | 23 kts | 165° |
| 2026-05-07 16:41 | 33.36903 | -7.58490 | 652 ft | 20 kts | 157° |
| 2026-05-07 16:42 | 33.36898 | -7.58438 | 652 ft | 10 kts | 67° |
| 2026-05-07 16:42 | 33.36919 | -7.58353 | 651 ft | 11 kts | 74° |
| 2026-05-07 16:42 | 33.36941 | -7.58256 | 651 ft | 13 kts | 74° |
| 2026-05-07 16:42 | 33.37006 | -7.58236 | 650 ft | 11 kts | 347° |
| 2026-05-07 16:43 | 33.37082 | -7.58233 | 651 ft | 12 kts | 31° |
| 2026-05-07 16:43 | 33.37105 | -7.58195 | 650 ft | 1 kts | 95° |
| 2026-05-07 16:43 | 33.37106 | -7.58187 | 650 ft | 2 kts | 83° |
| 2026-05-07 16:43 | 33.37107 | -7.58182 | 650 ft | 0 kts | 78° |